< Typhoon 199210 1992 Season Typhoon 199212 >
Typhoon 199211 (KENT)
General InformationTrack Information on Google MapsDetailed Wind InformationList of All Images || NewsDisaster Info.ResourceGoogle EarthGE AnimationAtom FeedGeoJSON
Detalied Best Track (Time Zone = UTC)
Year Month Day Hour Lat. Long. Pressure (hPa) Wind (kt) Class Image Chart
1992 8 5 06 9.5 171.7 1006 0 2 Image Chart
1992 8 5 12 10.0 170.5 1006 0 2 Image Chart
1992 8 5 18 10.4 169.5 1004 0 2 Image Chart
1992 8 6 00 10.8 168.7 1004 0 2 Image Chart
1992 8 6 06 11.6 167.9 996 35 3 Image Chart
1992 8 6 12 12.2 167.0 990 45 3 Image Chart
1992 8 6 18 12.7 165.9 990 45 3 Image Chart
1992 8 7 00 13.3 164.8 980 55 4 Image Chart
1992 8 7 06 13.8 163.5 980 55 4 Image Chart
1992 8 7 12 14.4 162.5 975 60 4 Image Chart
1992 8 7 18 15.1 161.6 970 65 5 Image Chart
1992 8 8 00 15.8 160.8 970 65 5 Image Chart
1992 8 8 06 16.6 159.9 970 65 5 Image Chart
1992 8 8 12 17.2 159.1 970 65 5 Image Chart
1992 8 8 18 17.6 158.1 970 65 5 Image Chart
1992 8 9 00 17.9 156.6 970 65 5 Image Chart
1992 8 9 06 18.2 155.6 970 65 5 Image Chart
1992 8 9 12 18.8 154.5 970 65 5 Image Chart
1992 8 9 18 19.2 153.8 965 70 5 Image Chart
1992 8 10 00 19.4 153.0 960 75 5 Image Chart
1992 8 10 06 19.6 152.2 955 80 5 Image Chart
1992 8 10 12 19.8 151.3 950 80 5 Image Chart
1992 8 10 18 20.2 150.3 945 85 5 Image Chart
1992 8 11 00 20.6 149.4 935 90 5 Image Chart
1992 8 11 06 20.9 148.6 935 90 5 Image Chart
1992 8 11 12 21.2 147.9 930 95 5 Image Chart
1992 8 11 18 21.6 147.1 930 95 5 Image Chart
1992 8 12 00 22.1 146.5 930 95 5 Image Chart
1992 8 12 06 22.5 145.9 935 90 5 Image Chart
1992 8 12 12 22.8 145.5 940 85 5 Image Chart
1992 8 12 18 23.2 145.2 950 80 5 Image Chart
1992 8 13 00 23.6 144.9 950 80 5 Image Chart
1992 8 13 06 24.0 144.7 955 75 5 Image Chart
1992 8 13 12 24.5 144.7 955 75 5 Image Chart
1992 8 13 18 25.1 144.4 960 75 5 Image Chart
1992 8 14 00 25.8 143.9 960 75 5 Image Chart
1992 8 14 03 26.0 143.6 960 75 5 Image Chart
1992 8 14 06 26.1 143.4 965 70 5 Image Chart
1992 8 14 09 26.3 143.2 965 70 5 Image Chart
1992 8 14 12 26.4 143.1 965 70 5 Image Chart
1992 8 14 15 26.6 142.9 965 70 5 Image Chart
1992 8 14 18 26.8 142.6 970 65 5 Image Chart
1992 8 14 21 26.9 142.3 970 65 5 Image Chart
1992 8 15 00 27.0 142.0 970 65 5 Image Chart
1992 8 15 03 27.1 141.8 970 65 5 Image Chart
1992 8 15 06 27.2 141.6 970 65 5 Image Chart
1992 8 15 09 27.3 141.3 970 65 5 Image Chart
1992 8 15 12 27.4 141.0 970 65 5 Image Chart
1992 8 15 15 27.5 140.7 970 65 5 Image Chart
1992 8 15 18 27.6 140.4 970 65 5 Image Chart
1992 8 15 21 27.7 140.0 970 65 5 Image Chart
1992 8 16 00 27.8 139.7 970 60 4 Image Chart
1992 8 16 06 28.1 138.7 970 60 4 Image Chart
1992 8 16 12 28.6 137.3 970 60 4 Image Chart
1992 8 16 18 28.8 136.1 970 60 4 Image Chart
1992 8 17 00 28.9 135.1 970 60 4 Image Chart
1992 8 17 03 29.1 134.6 970 60 4 Image Chart
1992 8 17 06 29.3 134.2 970 60 4 Image Chart
1992 8 17 09 29.7 133.8 970 60 4 Image Chart
1992 8 17 12 30.0 133.4 970 60 4 Image Chart
1992 8 17 15 30.1 133.1 970 60 4 Image Chart
1992 8 17 18 30.2 132.8 970 60 4 Image Chart
1992 8 17 21 30.6 132.5 970 60 4 Image Chart
1992 8 18 00 31.0 132.3 970 60 4 Image Chart
1992 8 18 03 31.3 132.1 975 55 4 Image Chart
1992 8 18 06 31.7 132.0 975 55 4 Image Chart
1992 8 18 09 32.1 131.9 980 50 4 Image Chart
1992 8 18 11 32.5 131.9 985 45 3 Image Chart
1992 8 18 12 32.8 131.8 985 45 3 Image Chart
1992 8 18 15 33.4 131.5 990 40 3 Image Chart
1992 8 18 17 33.8 131.3 990 40 3 Image Chart
1992 8 18 18 34.1 131.2 990 40 3 Image Chart
1992 8 18 21 34.7 131.1 990 40 3 Image Chart
1992 8 19 00 35.4 131.2 992 40 3 Image Chart
1992 8 19 03 35.6 131.4 992 35 3 Image Chart
1992 8 19 06 35.8 131.6 994 0 2 Image Chart
1992 8 19 12 36.0 132.0 996 0 2 Image Chart
Japan Meteorological Agency Best Track Data | Correction Date : 1992-12-25
< Typhoon 199210 1992 Season Typhoon 199212 >

Help